sensor_id;sensor_type;location;lat;lon;timestamp;P1;durP1;ratioP1;P2;durP2;ratioP2
70487;SDS011;57976;48.174;16.370;2022-08-16T00:00:43;6.80;;;4.10;;
70487;SDS011;57976;48.174;16.370;2022-08-16T00:02:49;7.50;;;4.00;;
70487;SDS011;57976;48.174;16.370;2022-08-16T00:04:55;7.20;;;4.20;;
70487;SDS011;57976;48.174;16.370;2022-08-16T00:07:02;7.00;;;4.30;;
70487;SDS011;57976;48.174;16.370;2022-08-16T00:09:07;8.30;;;4.30;;
70487;SDS011;57976;48.174;16.370;2022-08-16T00:11:19;6.40;;;4.30;;
70487;SDS011;57976;48.174;16.370;2022-08-16T00:13:25;7.60;;;4.20;;
70487;SDS011;57976;48.174;16.370;2022-08-16T00:15:34;8.00;;;4.60;;
70487;SDS011;57976;48.174;16.370;2022-08-16T00:17:56;7.10;;;4.20;;
70487;SDS011;57976;48.174;16.370;2022-08-16T00:20:01;7.60;;;4.30;;
70487;SDS011;57976;48.174;16.370;2022-08-16T00:22:14;7.00;;;4.40;;
70487;SDS011;57976;48.174;16.370;2022-08-16T00:24:23;8.00;;;4.00;;
70487;SDS011;57976;48.174;16.370;2022-08-16T00:26:34;7.20;;;4.00;;
70487;SDS011;57976;48.174;16.370;2022-08-16T00:28:46;6.50;;;3.90;;
70487;SDS011;57976;48.174;16.370;2022-08-16T00:30:56;6.70;;;3.70;;
70487;SDS011;57976;48.174;16.370;2022-08-16T00:33:03;7.10;;;3.70;;
70487;SDS011;57976;48.174;16.370;2022-08-16T00:35:11;6.80;;;3.50;;
70487;SDS011;57976;48.174;16.370;2022-08-16T00:37:19;7.00;;;3.80;;
70487;SDS011;57976;48.174;16.370;2022-08-16T00:39:27;6.70;;;3.80;;
70487;SDS011;57976;48.174;16.370;2022-08-16T00:41:32;6.80;;;3.70;;
70487;SDS011;57976;48.174;16.370;2022-08-16T00:43:40;6.00;;;3.50;;
70487;SDS011;57976;48.174;16.370;2022-08-16T00:45:47;6.20;;;3.70;;
70487;SDS011;57976;48.174;16.370;2022-08-16T00:48:03;6.30;;;3.50;;
70487;SDS011;57976;48.174;16.370;2022-08-16T00:50:30;6.50;;;3.80;;
70487;SDS011;57976;48.174;16.370;2022-08-16T00:52:39;6.80;;;3.70;;
70487;SDS011;57976;48.174;16.370;2022-08-16T00:54:53;6.40;;;3.80;;
70487;SDS011;57976;48.174;16.370;2022-08-16T00:56:58;6.20;;;3.60;;
70487;SDS011;57976;48.174;16.370;2022-08-16T00:59:07;6.30;;;3.80;;
70487;SDS011;57976;48.174;16.370;2022-08-16T01:01:18;6.10;;;3.80;;
70487;SDS011;57976;48.174;16.370;2022-08-16T01:03:24;6.90;;;3.90;;
70487;SDS011;57976;48.174;16.370;2022-08-16T01:05:37;6.90;;;3.80;;
70487;SDS011;57976;48.174;16.370;2022-08-16T01:07:43;8.20;;;3.90;;
70487;SDS011;57976;48.174;16.370;2022-08-16T01:09:55;8.00;;;4.00;;
70487;SDS011;57976;48.174;16.370;2022-08-16T01:12:06;7.40;;;3.70;;
70487;SDS011;57976;48.174;16.370;2022-08-16T01:14:32;6.50;;;3.80;;
70487;SDS011;57976;48.174;16.370;2022-08-16T01:16:45;7.00;;;3.80;;
70487;SDS011;57976;48.174;16.370;2022-08-16T01:18:54;7.00;;;3.70;;
70487;SDS011;57976;48.174;16.370;2022-08-16T01:21:07;7.20;;;3.80;;
70487;SDS011;57976;48.174;16.370;2022-08-16T01:23:26;7.40;;;3.90;;
70487;SDS011;57976;48.174;16.370;2022-08-16T01:25:58;7.10;;;4.00;;
70487;SDS011;57976;48.174;16.370;2022-08-16T01:28:24;6.70;;;3.60;;
70487;SDS011;57976;48.174;16.370;2022-08-16T01:30:35;7.10;;;4.00;;
70487;SDS011;57976;48.174;16.370;2022-08-16T01:32:52;8.60;;;3.70;;
70487;SDS011;57976;48.174;16.370;2022-08-16T01:35:17;5.70;;;3.30;;
70487;SDS011;57976;48.174;16.370;2022-08-16T01:37:25;6.70;;;3.60;;
70487;SDS011;57976;48.174;16.370;2022-08-16T01:39:38;7.00;;;3.10;;
70487;SDS011;57976;48.174;16.370;2022-08-16T01:41:44;6.40;;;3.40;;
70487;SDS011;57976;48.174;16.370;2022-08-16T01:43:51;5.70;;;3.30;;
70487;SDS011;57976;48.174;16.370;2022-08-16T01:46:00;7.00;;;3.20;;
70487;SDS011;57976;48.174;16.370;2022-08-16T01:48:31;7.10;;;3.10;;
70487;SDS011;57976;48.174;16.370;2022-08-16T01:50:37;6.70;;;3.10;;
70487;SDS011;57976;48.174;16.370;2022-08-16T01:53:09;6.90;;;3.10;;
70487;SDS011;57976;48.174;16.370;2022-08-16T01:55:44;6.70;;;3.00;;
70487;SDS011;57976;48.174;16.370;2022-08-16T01:57:56;6.30;;;3.20;;
70487;SDS011;57976;48.174;16.370;2022-08-16T02:00:06;7.00;;;2.90;;
70487;SDS011;57976;48.174;16.370;2022-08-16T02:02:21;6.80;;;3.30;;
70487;SDS011;57976;48.174;16.370;2022-08-16T02:04:31;6.90;;;3.10;;
70487;SDS011;57976;48.174;16.370;2022-08-16T02:06:57;7.70;;;3.10;;
70487;SDS011;57976;48.174;16.370;2022-08-16T02:09:02;5.60;;;2.80;;
70487;SDS011;57976;48.174;16.370;2022-08-16T02:11:16;6.10;;;3.00;;
70487;SDS011;57976;48.174;16.370;2022-08-16T02:13:23;6.20;;;2.90;;
70487;SDS011;57976;48.174;16.370;2022-08-16T02:15:35;5.90;;;3.20;;
70487;SDS011;57976;48.174;16.370;2022-08-16T02:17:46;5.80;;;2.80;;
70487;SDS011;57976;48.174;16.370;2022-08-16T02:19:54;5.80;;;2.70;;
70487;SDS011;57976;48.174;16.370;2022-08-16T02:22:03;6.90;;;3.00;;
70487;SDS011;57976;48.174;16.370;2022-08-16T02:24:28;7.30;;;2.90;;
70487;SDS011;57976;48.174;16.370;2022-08-16T02:26:43;6.50;;;2.70;;
70487;SDS011;57976;48.174;16.370;2022-08-16T02:28:52;7.50;;;2.90;;
70487;SDS011;57976;48.174;16.370;2022-08-16T02:31:03;5.40;;;2.70;;
70487;SDS011;57976;48.174;16.370;2022-08-16T02:33:11;6.80;;;2.60;;
70487;SDS011;57976;48.174;16.370;2022-08-16T02:35:21;6.50;;;2.60;;
70487;SDS011;57976;48.174;16.370;2022-08-16T02:37:29;6.20;;;2.70;;
70487;SDS011;57976;48.174;16.370;2022-08-16T02:39:55;7.20;;;2.60;;
70487;SDS011;57976;48.174;16.370;2022-08-16T02:42:01;6.70;;;2.60;;
70487;SDS011;57976;48.174;16.370;2022-08-16T02:44:06;7.10;;;2.60;;
70487;SDS011;57976;48.174;16.370;2022-08-16T02:46:17;5.30;;;2.40;;
70487;SDS011;57976;48.174;16.370;2022-08-16T02:48:32;6.20;;;2.60;;
70487;SDS011;57976;48.174;16.370;2022-08-16T02:50:40;6.30;;;2.60;;
70487;SDS011;57976;48.174;16.370;2022-08-16T02:53:04;6.00;;;2.30;;
70487;SDS011;57976;48.174;16.370;2022-08-16T02:55:10;5.20;;;2.40;;
70487;SDS011;57976;48.174;16.370;2022-08-16T02:57:17;5.60;;;2.50;;
70487;SDS011;57976;48.174;16.370;2022-08-16T02:59:22;6.30;;;2.30;;
70487;SDS011;57976;48.174;16.370;2022-08-16T03:01:42;5.60;;;2.40;;
70487;SDS011;57976;48.174;16.370;2022-08-16T03:03:50;4.70;;;2.20;;
70487;SDS011;57976;48.174;16.370;2022-08-16T03:06:17;6.30;;;2.40;;
70487;SDS011;57976;48.174;16.370;2022-08-16T03:08:46;6.90;;;2.40;;
70487;SDS011;57976;48.174;16.370;2022-08-16T03:10:55;7.00;;;2.50;;
70487;SDS011;57976;48.174;16.370;2022-08-16T03:13:01;5.90;;;2.30;;
70487;SDS011;57976;48.174;16.370;2022-08-16T03:15:15;6.40;;;2.50;;
70487;SDS011;57976;48.174;16.370;2022-08-16T03:17:23;6.60;;;2.50;;
70487;SDS011;57976;48.174;16.370;2022-08-16T03:19:35;5.60;;;2.40;;
70487;SDS011;57976;48.174;16.370;2022-08-16T03:22:09;6.30;;;2.50;;
70487;SDS011;57976;48.174;16.370;2022-08-16T03:24:21;7.30;;;2.20;;
70487;SDS011;57976;48.174;16.370;2022-08-16T03:26:32;5.40;;;2.20;;
70487;SDS011;57976;48.174;16.370;2022-08-16T03:28:38;6.40;;;2.40;;
70487;SDS011;57976;48.174;16.370;2022-08-16T03:30:46;5.30;;;2.20;;
70487;SDS011;57976;48.174;16.370;2022-08-16T03:32:52;6.00;;;2.30;;
70487;SDS011;57976;48.174;16.370;2022-08-16T03:34:59;5.50;;;2.20;;
70487;SDS011;57976;48.174;16.370;2022-08-16T03:37:04;5.80;;;2.10;;
70487;SDS011;57976;48.174;16.370;2022-08-16T03:39:11;5.50;;;2.10;;
70487;SDS011;57976;48.174;16.370;2022-08-16T03:41:22;5.00;;;2.20;;
70487;SDS011;57976;48.174;16.370;2022-08-16T03:43:48;4.40;;;2.10;;
70487;SDS011;57976;48.174;16.370;2022-08-16T03:45:56;5.60;;;2.10;;
70487;SDS011;57976;48.174;16.370;2022-08-16T03:48:08;4.80;;;2.20;;
70487;SDS011;57976;48.174;16.370;2022-08-16T03:50:20;6.10;;;1.90;;
70487;SDS011;57976;48.174;16.370;2022-08-16T03:52:28;5.20;;;2.00;;
70487;SDS011;57976;48.174;16.370;2022-08-16T03:54:34;5.30;;;2.00;;
70487;SDS011;57976;48.174;16.370;2022-08-16T03:57:01;5.30;;;1.80;;
70487;SDS011;57976;48.174;16.370;2022-08-16T03:59:08;5.50;;;2.20;;
70487;SDS011;57976;48.174;16.370;2022-08-16T04:01:21;4.90;;;2.10;;
70487;SDS011;57976;48.174;16.370;2022-08-16T04:03:31;5.90;;;2.00;;
70487;SDS011;57976;48.174;16.370;2022-08-16T04:05:38;5.40;;;2.00;;
70487;SDS011;57976;48.174;16.370;2022-08-16T04:07:48;4.80;;;1.90;;
70487;SDS011;57976;48.174;16.370;2022-08-16T04:09:54;6.10;;;2.30;;
70487;SDS011;57976;48.174;16.370;2022-08-16T04:11:59;4.80;;;2.00;;
70487;SDS011;57976;48.174;16.370;2022-08-16T04:14:04;5.50;;;2.10;;
70487;SDS011;57976;48.174;16.370;2022-08-16T04:16:29;6.00;;;2.20;;
70487;SDS011;57976;48.174;16.370;2022-08-16T04:18:45;5.30;;;1.80;;
70487;SDS011;57976;48.174;16.370;2022-08-16T04:20:51;5.30;;;1.90;;
70487;SDS011;57976;48.174;16.370;2022-08-16T04:23:00;5.00;;;2.00;;
70487;SDS011;57976;48.174;16.370;2022-08-16T04:25:09;5.20;;;1.80;;
70487;SDS011;57976;48.174;16.370;2022-08-16T04:27:14;4.70;;;2.00;;
70487;SDS011;57976;48.174;16.370;2022-08-16T04:29:19;6.20;;;2.10;;
70487;SDS011;57976;48.174;16.370;2022-08-16T04:31:28;4.70;;;2.00;;
70487;SDS011;57976;48.174;16.370;2022-08-16T04:33:45;5.40;;;2.20;;
70487;SDS011;57976;48.174;16.370;2022-08-16T04:35:54;5.00;;;2.00;;
70487;SDS011;57976;48.174;16.370;2022-08-16T04:38:00;5.00;;;2.10;;
70487;SDS011;57976;48.174;16.370;2022-08-16T04:40:24;5.60;;;2.10;;
70487;SDS011;57976;48.174;16.370;2022-08-16T04:42:30;6.40;;;2.20;;
70487;SDS011;57976;48.174;16.370;2022-08-16T04:44:40;5.30;;;2.00;;
70487;SDS011;57976;48.174;16.370;2022-08-16T04:46:59;4.80;;;2.10;;
70487;SDS011;57976;48.174;16.370;2022-08-16T04:49:24;5.50;;;1.90;;
70487;SDS011;57976;48.174;16.370;2022-08-16T04:51:46;6.20;;;2.10;;
70487;SDS011;57976;48.174;16.370;2022-08-16T04:53:55;6.60;;;1.90;;
70487;SDS011;57976;48.174;16.370;2022-08-16T04:56:02;5.50;;;2.00;;
70487;SDS011;57976;48.174;16.370;2022-08-16T04:58:13;4.70;;;1.90;;
70487;SDS011;57976;48.174;16.370;2022-08-16T05:00:38;5.70;;;2.00;;
70487;SDS011;57976;48.174;16.370;2022-08-16T05:02:50;5.60;;;2.00;;
70487;SDS011;57976;48.174;16.370;2022-08-16T05:05:01;5.30;;;2.10;;
70487;SDS011;57976;48.174;16.370;2022-08-16T05:07:07;5.40;;;2.20;;
70487;SDS011;57976;48.174;16.370;2022-08-16T05:09:42;5.70;;;2.30;;
70487;SDS011;57976;48.174;16.370;2022-08-16T05:11:51;6.20;;;2.00;;
70487;SDS011;57976;48.174;16.370;2022-08-16T05:13:59;6.40;;;2.10;;
70487;SDS011;57976;48.174;16.370;2022-08-16T05:16:10;6.00;;;1.90;;
70487;SDS011;57976;48.174;16.370;2022-08-16T05:18:27;6.20;;;2.30;;
70487;SDS011;57976;48.174;16.370;2022-08-16T05:20:33;5.90;;;2.30;;
70487;SDS011;57976;48.174;16.370;2022-08-16T05:22:58;5.60;;;2.10;;
70487;SDS011;57976;48.174;16.370;2022-08-16T05:25:04;5.00;;;2.20;;
70487;SDS011;57976;48.174;16.370;2022-08-16T05:27:14;6.30;;;2.10;;
70487;SDS011;57976;48.174;16.370;2022-08-16T05:29:22;5.20;;;2.30;;
70487;SDS011;57976;48.174;16.370;2022-08-16T05:31:50;4.70;;;2.00;;
70487;SDS011;57976;48.174;16.370;2022-08-16T05:33:56;5.50;;;2.30;;
70487;SDS011;57976;48.174;16.370;2022-08-16T05:36:22;5.60;;;2.10;;
70487;SDS011;57976;48.174;16.370;2022-08-16T05:38:39;6.10;;;2.00;;
70487;SDS011;57976;48.174;16.370;2022-08-16T05:40:47;6.50;;;2.20;;
70487;SDS011;57976;48.174;16.370;2022-08-16T05:43:06;6.40;;;2.40;;
70487;SDS011;57976;48.174;16.370;2022-08-16T05:45:14;5.80;;;2.20;;
70487;SDS011;57976;48.174;16.370;2022-08-16T05:47:30;5.40;;;2.30;;
70487;SDS011;57976;48.174;16.370;2022-08-16T05:49:45;5.70;;;2.20;;
70487;SDS011;57976;48.174;16.370;2022-08-16T05:51:53;6.30;;;2.30;;
70487;SDS011;57976;48.174;16.370;2022-08-16T05:53:58;5.10;;;2.10;;
70487;SDS011;57976;48.174;16.370;2022-08-16T05:56:03;5.30;;;2.10;;
70487;SDS011;57976;48.174;16.370;2022-08-16T05:58:14;4.90;;;2.10;;
70487;SDS011;57976;48.174;16.370;2022-08-16T06:00:35;6.00;;;2.20;;
70487;SDS011;57976;48.174;16.370;2022-08-16T06:02:40;5.50;;;2.00;;
70487;SDS011;57976;48.174;16.370;2022-08-16T06:05:12;6.70;;;2.20;;
70487;SDS011;57976;48.174;16.370;2022-08-16T06:07:20;5.10;;;2.00;;
70487;SDS011;57976;48.174;16.370;2022-08-16T06:09:31;6.00;;;2.30;;
70487;SDS011;57976;48.174;16.370;2022-08-16T06:11:46;5.00;;;1.90;;
70487;SDS011;57976;48.174;16.370;2022-08-16T06:13:52;5.50;;;2.30;;
70487;SDS011;57976;48.174;16.370;2022-08-16T06:16:18;5.80;;;2.10;;
70487;SDS011;57976;48.174;16.370;2022-08-16T06:18:26;7.70;;;2.20;;
70487;SDS011;57976;48.174;16.370;2022-08-16T06:20:34;5.60;;;2.20;;
70487;SDS011;57976;48.174;16.370;2022-08-16T06:22:57;6.30;;;2.20;;
70487;SDS011;57976;48.174;16.370;2022-08-16T06:25:16;5.50;;;2.00;;
70487;SDS011;57976;48.174;16.370;2022-08-16T06:27:38;5.50;;;2.30;;
70487;SDS011;57976;48.174;16.370;2022-08-16T06:29:59;5.20;;;2.10;;
70487;SDS011;57976;48.174;16.370;2022-08-16T06:32:08;5.50;;;2.10;;
70487;SDS011;57976;48.174;16.370;2022-08-16T06:34:30;7.50;;;2.20;;
70487;SDS011;57976;48.174;16.370;2022-08-16T06:36:57;6.60;;;2.20;;
70487;SDS011;57976;48.174;16.370;2022-08-16T06:39:03;5.10;;;2.10;;
70487;SDS011;57976;48.174;16.370;2022-08-16T06:41:29;5.50;;;2.20;;
70487;SDS011;57976;48.174;16.370;2022-08-16T06:43:45;5.30;;;2.00;;
70487;SDS011;57976;48.174;16.370;2022-08-16T06:45:57;4.70;;;2.00;;
70487;SDS011;57976;48.174;16.370;2022-08-16T06:48:06;5.20;;;2.00;;
70487;SDS011;57976;48.174;16.370;2022-08-16T06:50:12;5.60;;;2.20;;
70487;SDS011;57976;48.174;16.370;2022-08-16T06:52:31;5.10;;;2.30;;
70487;SDS011;57976;48.174;16.370;2022-08-16T06:54:57;6.20;;;2.00;;
70487;SDS011;57976;48.174;16.370;2022-08-16T06:57:02;6.30;;;2.00;;
70487;SDS011;57976;48.174;16.370;2022-08-16T06:59:19;5.10;;;2.20;;
70487;SDS011;57976;48.174;16.370;2022-08-16T07:01:31;5.10;;;2.20;;
70487;SDS011;57976;48.174;16.370;2022-08-16T07:03:51;6.70;;;2.10;;
70487;SDS011;57976;48.174;16.370;2022-08-16T07:06:03;4.90;;;2.10;;
70487;SDS011;57976;48.174;16.370;2022-08-16T07:08:16;6.10;;;2.20;;
70487;SDS011;57976;48.174;16.370;2022-08-16T07:10:21;5.40;;;2.20;;
70487;SDS011;57976;48.174;16.370;2022-08-16T07:12:29;5.10;;;2.20;;
70487;SDS011;57976;48.174;16.370;2022-08-16T07:14:50;5.00;;;2.10;;
70487;SDS011;57976;48.174;16.370;2022-08-16T07:17:05;5.60;;;2.20;;
70487;SDS011;57976;48.174;16.370;2022-08-16T07:19:18;5.70;;;2.30;;
70487;SDS011;57976;48.174;16.370;2022-08-16T07:21:43;6.40;;;2.40;;
70487;SDS011;57976;48.174;16.370;2022-08-16T07:24:02;4.80;;;2.00;;
70487;SDS011;57976;48.174;16.370;2022-08-16T07:26:13;5.20;;;2.00;;
70487;SDS011;57976;48.174;16.370;2022-08-16T07:28:28;4.80;;;2.20;;
70487;SDS011;57976;48.174;16.370;2022-08-16T07:30:33;6.40;;;2.40;;
70487;SDS011;57976;48.174;16.370;2022-08-16T07:33:02;6.90;;;2.20;;
70487;SDS011;57976;48.174;16.370;2022-08-16T07:35:09;5.10;;;2.20;;
70487;SDS011;57976;48.174;16.370;2022-08-16T07:37:16;6.40;;;2.30;;
70487;SDS011;57976;48.174;16.370;2022-08-16T07:39:33;5.40;;;2.50;;
70487;SDS011;57976;48.174;16.370;2022-08-16T07:41:45;7.30;;;2.30;;
70487;SDS011;57976;48.174;16.370;2022-08-16T07:43:50;7.20;;;2.20;;
70487;SDS011;57976;48.174;16.370;2022-08-16T07:45:56;5.30;;;2.40;;
70487;SDS011;57976;48.174;16.370;2022-08-16T07:48:04;6.20;;;2.30;;
70487;SDS011;57976;48.174;16.370;2022-08-16T07:50:15;6.50;;;2.40;;
70487;SDS011;57976;48.174;16.370;2022-08-16T07:52:41;5.70;;;2.10;;
70487;SDS011;57976;48.174;16.370;2022-08-16T07:54:47;6.40;;;2.20;;
70487;SDS011;57976;48.174;16.370;2022-08-16T07:56:56;5.70;;;2.30;;
70487;SDS011;57976;48.174;16.370;2022-08-16T07:59:01;4.90;;;2.20;;
70487;SDS011;57976;48.174;16.370;2022-08-16T08:01:06;6.00;;;2.40;;
70487;SDS011;57976;48.174;16.370;2022-08-16T08:03:26;5.00;;;2.30;;
70487;SDS011;57976;48.174;16.370;2022-08-16T08:05:45;5.20;;;2.50;;
70487;SDS011;57976;48.174;16.370;2022-08-16T08:07:53;5.20;;;2.30;;
70487;SDS011;57976;48.174;16.370;2022-08-16T08:09:59;4.90;;;2.20;;
70487;SDS011;57976;48.174;16.370;2022-08-16T08:12:07;7.30;;;2.30;;
70487;SDS011;57976;48.174;16.370;2022-08-16T08:14:32;5.60;;;2.30;;
70487;SDS011;57976;48.174;16.370;2022-08-16T08:16:38;4.80;;;2.10;;
70487;SDS011;57976;48.174;16.370;2022-08-16T08:18:57;5.70;;;2.30;;
70487;SDS011;57976;48.174;16.370;2022-08-16T08:21:05;4.90;;;2.20;;
70487;SDS011;57976;48.174;16.370;2022-08-16T08:23:10;5.50;;;2.50;;
70487;SDS011;57976;48.174;16.370;2022-08-16T08:25:22;5.90;;;2.40;;
70487;SDS011;57976;48.174;16.370;2022-08-16T08:27:48;6.80;;;2.30;;
70487;SDS011;57976;48.174;16.370;2022-08-16T08:30:04;4.90;;;2.20;;
70487;SDS011;57976;48.174;16.370;2022-08-16T08:32:30;6.90;;;2.50;;
70487;SDS011;57976;48.174;16.370;2022-08-16T08:35:06;5.60;;;2.50;;
70487;SDS011;57976;48.174;16.370;2022-08-16T08:37:13;6.30;;;2.40;;
70487;SDS011;57976;48.174;16.370;2022-08-16T08:39:20;5.90;;;2.30;;
70487;SDS011;57976;48.174;16.370;2022-08-16T08:41:25;5.60;;;2.40;;
70487;SDS011;57976;48.174;16.370;2022-08-16T08:43:31;5.60;;;2.40;;
70487;SDS011;57976;48.174;16.370;2022-08-16T08:45:44;7.20;;;2.60;;
70487;SDS011;57976;48.174;16.370;2022-08-16T08:47:56;5.20;;;2.40;;
70487;SDS011;57976;48.174;16.370;2022-08-16T08:50:03;5.40;;;2.50;;
70487;SDS011;57976;48.174;16.370;2022-08-16T08:52:11;6.70;;;2.70;;
70487;SDS011;57976;48.174;16.370;2022-08-16T08:54:36;5.60;;;2.40;;
70487;SDS011;57976;48.174;16.370;2022-08-16T08:56:42;6.60;;;2.70;;
70487;SDS011;57976;48.174;16.370;2022-08-16T08:59:06;6.70;;;2.30;;
70487;SDS011;57976;48.174;16.370;2022-08-16T09:01:26;5.70;;;2.30;;
70487;SDS011;57976;48.174;16.370;2022-08-16T09:03:44;5.80;;;2.50;;
70487;SDS011;57976;48.174;16.370;2022-08-16T09:05:49;5.10;;;2.30;;
70487;SDS011;57976;48.174;16.370;2022-08-16T09:07:56;5.20;;;2.30;;
70487;SDS011;57976;48.174;16.370;2022-08-16T09:10:28;7.10;;;2.40;;
70487;SDS011;57976;48.174;16.370;2022-08-16T09:12:33;5.90;;;2.40;;
70487;SDS011;57976;48.174;16.370;2022-08-16T09:14:43;5.90;;;2.50;;
70487;SDS011;57976;48.174;16.370;2022-08-16T09:16:52;7.30;;;2.70;;
70487;SDS011;57976;48.174;16.370;2022-08-16T09:19:10;5.50;;;2.60;;
70487;SDS011;57976;48.174;16.370;2022-08-16T09:21:15;5.10;;;2.40;;
70487;SDS011;57976;48.174;16.370;2022-08-16T09:23:33;5.60;;;2.60;;
70487;SDS011;57976;48.174;16.370;2022-08-16T09:25:40;6.00;;;2.50;;
70487;SDS011;57976;48.174;16.370;2022-08-16T09:27:49;5.10;;;2.40;;
70487;SDS011;57976;48.174;16.370;2022-08-16T09:30:08;5.80;;;2.40;;
70487;SDS011;57976;48.174;16.370;2022-08-16T09:32:34;6.50;;;2.60;;
70487;SDS011;57976;48.174;16.370;2022-08-16T09:34:39;5.70;;;2.50;;
70487;SDS011;57976;48.174;16.370;2022-08-16T09:36:44;6.50;;;2.40;;
70487;SDS011;57976;48.174;16.370;2022-08-16T09:38:51;6.00;;;2.50;;
70487;SDS011;57976;48.174;16.370;2022-08-16T09:41:03;5.90;;;2.40;;
70487;SDS011;57976;48.174;16.370;2022-08-16T09:43:20;5.90;;;2.50;;
70487;SDS011;57976;48.174;16.370;2022-08-16T09:45:44;7.50;;;2.60;;
70487;SDS011;57976;48.174;16.370;2022-08-16T09:47:50;7.90;;;2.90;;
70487;SDS011;57976;48.174;16.370;2022-08-16T09:49:59;6.80;;;2.40;;
70487;SDS011;57976;48.174;16.370;2022-08-16T09:52:13;5.80;;;2.50;;
70487;SDS011;57976;48.174;16.370;2022-08-16T09:54:18;7.00;;;2.70;;
70487;SDS011;57976;48.174;16.370;2022-08-16T09:56:26;5.30;;;2.60;;
70487;SDS011;57976;48.174;16.370;2022-08-16T09:58:33;5.90;;;2.50;;
70487;SDS011;57976;48.174;16.370;2022-08-16T10:00:58;5.30;;;2.40;;
70487;SDS011;57976;48.174;16.370;2022-08-16T10:03:03;5.50;;;2.60;;
70487;SDS011;57976;48.174;16.370;2022-08-16T10:05:11;4.90;;;2.60;;
70487;SDS011;57976;48.174;16.370;2022-08-16T10:07:23;6.10;;;2.70;;
70487;SDS011;57976;48.174;16.370;2022-08-16T10:09:46;6.30;;;2.60;;
70487;SDS011;57976;48.174;16.370;2022-08-16T10:11:58;6.30;;;2.40;;
70487;SDS011;57976;48.174;16.370;2022-08-16T10:14:21;5.40;;;2.50;;
70487;SDS011;57976;48.174;16.370;2022-08-16T10:16:35;5.40;;;2.50;;
70487;SDS011;57976;48.174;16.370;2022-08-16T10:18:41;5.60;;;2.50;;
70487;SDS011;57976;48.174;16.370;2022-08-16T10:21:06;6.50;;;2.60;;
70487;SDS011;57976;48.174;16.370;2022-08-16T10:23:12;5.60;;;2.40;;
70487;SDS011;57976;48.174;16.370;2022-08-16T10:25:19;5.90;;;2.60;;
70487;SDS011;57976;48.174;16.370;2022-08-16T10:27:44;5.20;;;2.70;;
70487;SDS011;57976;48.174;16.370;2022-08-16T10:29:58;5.50;;;2.80;;
70487;SDS011;57976;48.174;16.370;2022-08-16T10:32:27;6.90;;;2.60;;
70487;SDS011;57976;48.174;16.370;2022-08-16T10:34:34;5.50;;;2.60;;
70487;SDS011;57976;48.174;16.370;2022-08-16T10:36:39;6.40;;;2.70;;
70487;SDS011;57976;48.174;16.370;2022-08-16T10:38:46;6.20;;;2.50;;
70487;SDS011;57976;48.174;16.370;2022-08-16T10:40:53;6.90;;;2.50;;
70487;SDS011;57976;48.174;16.370;2022-08-16T10:42:58;5.40;;;2.60;;
70487;SDS011;57976;48.174;16.370;2022-08-16T10:45:04;5.30;;;2.60;;
70487;SDS011;57976;48.174;16.370;2022-08-16T10:47:12;6.30;;;2.70;;
70487;SDS011;57976;48.174;16.370;2022-08-16T10:49:19;5.50;;;2.70;;
70487;SDS011;57976;48.174;16.370;2022-08-16T10:51:23;6.00;;;2.70;;
70487;SDS011;57976;48.174;16.370;2022-08-16T10:53:46;5.80;;;2.50;;
70487;SDS011;57976;48.174;16.370;2022-08-16T10:55:52;5.60;;;2.90;;
70487;SDS011;57976;48.174;16.370;2022-08-16T10:57:59;7.10;;;2.50;;
70487;SDS011;57976;48.174;16.370;2022-08-16T11:00:14;5.80;;;2.70;;
70487;SDS011;57976;48.174;16.370;2022-08-16T11:02:23;6.20;;;2.80;;
70487;SDS011;57976;48.174;16.370;2022-08-16T11:04:49;7.00;;;2.60;;
70487;SDS011;57976;48.174;16.370;2022-08-16T11:07:11;5.80;;;2.80;;
70487;SDS011;57976;48.174;16.370;2022-08-16T11:09:36;5.50;;;2.50;;
70487;SDS011;57976;48.174;16.370;2022-08-16T11:12:02;6.00;;;2.70;;
70487;SDS011;57976;48.174;16.370;2022-08-16T11:14:16;5.40;;;2.80;;
70487;SDS011;57976;48.174;16.370;2022-08-16T11:16:21;5.90;;;2.60;;
70487;SDS011;57976;48.174;16.370;2022-08-16T11:18:29;6.50;;;2.90;;
70487;SDS011;57976;48.174;16.370;2022-08-16T11:20:54;5.50;;;2.50;;
70487;SDS011;57976;48.174;16.370;2022-08-16T11:23:01;6.70;;;2.70;;
70487;SDS011;57976;48.174;16.370;2022-08-16T11:25:08;6.20;;;2.70;;
70487;SDS011;57976;48.174;16.370;2022-08-16T11:27:19;6.30;;;2.70;;
70487;SDS011;57976;48.174;16.370;2022-08-16T11:29:34;6.30;;;2.70;;
70487;SDS011;57976;48.174;16.370;2022-08-16T11:31:39;6.60;;;2.90;;
70487;SDS011;57976;48.174;16.370;2022-08-16T11:33:56;6.30;;;2.60;;
70487;SDS011;57976;48.174;16.370;2022-08-16T11:36:01;5.90;;;2.70;;
70487;SDS011;57976;48.174;16.370;2022-08-16T11:38:26;6.90;;;2.80;;
70487;SDS011;57976;48.174;16.370;2022-08-16T11:40:51;6.90;;;3.00;;
70487;SDS011;57976;48.174;16.370;2022-08-16T11:43:00;6.50;;;3.20;;
70487;SDS011;57976;48.174;16.370;2022-08-16T11:45:07;5.50;;;2.80;;
70487;SDS011;57976;48.174;16.370;2022-08-16T11:47:13;6.20;;;2.80;;
70487;SDS011;57976;48.174;16.370;2022-08-16T11:49:22;5.70;;;2.60;;
70487;SDS011;57976;48.174;16.370;2022-08-16T11:51:27;6.40;;;2.70;;
70487;SDS011;57976;48.174;16.370;2022-08-16T11:53:32;6.30;;;2.90;;
70487;SDS011;57976;48.174;16.370;2022-08-16T11:55:38;5.60;;;2.90;;
70487;SDS011;57976;48.174;16.370;2022-08-16T11:57:46;6.10;;;2.90;;
70487;SDS011;57976;48.174;16.370;2022-08-16T11:59:53;6.60;;;2.80;;
70487;SDS011;57976;48.174;16.370;2022-08-16T12:01:58;7.40;;;2.80;;
70487;SDS011;57976;48.174;16.370;2022-08-16T12:04:24;6.10;;;2.70;;
70487;SDS011;57976;48.174;16.370;2022-08-16T12:06:29;8.40;;;2.90;;
70487;SDS011;57976;48.174;16.370;2022-08-16T12:08:35;5.30;;;2.70;;
70487;SDS011;57976;48.174;16.370;2022-08-16T12:10:41;5.50;;;2.80;;
70487;SDS011;57976;48.174;16.370;2022-08-16T12:12:49;5.70;;;2.80;;
70487;SDS011;57976;48.174;16.370;2022-08-16T12:14:54;6.50;;;3.00;;
70487;SDS011;57976;48.174;16.370;2022-08-16T12:17:05;6.50;;;3.20;;
70487;SDS011;57976;48.174;16.370;2022-08-16T12:19:10;6.10;;;2.70;;
70487;SDS011;57976;48.174;16.370;2022-08-16T12:21:16;5.90;;;3.10;;
70487;SDS011;57976;48.174;16.370;2022-08-16T12:23:21;6.00;;;2.70;;
70487;SDS011;57976;48.174;16.370;2022-08-16T12:25:27;5.60;;;2.80;;
70487;SDS011;57976;48.174;16.370;2022-08-16T12:27:33;7.60;;;2.90;;
70487;SDS011;57976;48.174;16.370;2022-08-16T12:29:41;6.60;;;2.90;;
70487;SDS011;57976;48.174;16.370;2022-08-16T12:31:49;6.30;;;2.90;;
70487;SDS011;57976;48.174;16.370;2022-08-16T12:34:03;7.10;;;2.80;;
70487;SDS011;57976;48.174;16.370;2022-08-16T12:36:08;5.90;;;2.60;;
70487;SDS011;57976;48.174;16.370;2022-08-16T12:38:15;5.90;;;2.80;;
70487;SDS011;57976;48.174;16.370;2022-08-16T12:40:42;5.50;;;2.80;;
70487;SDS011;57976;48.174;16.370;2022-08-16T12:42:50;6.30;;;2.90;;
70487;SDS011;57976;48.174;16.370;2022-08-16T12:45:01;5.90;;;2.90;;
70487;SDS011;57976;48.174;16.370;2022-08-16T12:47:08;7.50;;;2.60;;
70487;SDS011;57976;48.174;16.370;2022-08-16T12:49:19;5.20;;;2.40;;
70487;SDS011;57976;48.174;16.370;2022-08-16T12:51:26;5.70;;;2.80;;
70487;SDS011;57976;48.174;16.370;2022-08-16T12:53:53;6.80;;;2.80;;
70487;SDS011;57976;48.174;16.370;2022-08-16T12:55:59;6.10;;;3.00;;
70487;SDS011;57976;48.174;16.370;2022-08-16T12:58:06;6.60;;;2.90;;
70487;SDS011;57976;48.174;16.370;2022-08-16T13:00:32;6.40;;;3.00;;
70487;SDS011;57976;48.174;16.370;2022-08-16T13:02:42;5.50;;;2.70;;
70487;SDS011;57976;48.174;16.370;2022-08-16T13:04:47;6.00;;;2.70;;